createdAt,value
2022-10-06T00:01:33.181Z,18.68
2022-10-06T00:04:02.901Z,18.61
2022-10-06T00:06:32.874Z,18.62
2022-10-06T00:09:02.041Z,18.60
2022-10-06T00:11:30.834Z,18.58
2022-10-06T00:14:00.356Z,18.56
2022-10-06T00:16:31.211Z,18.56
2022-10-06T00:19:01.463Z,18.53
2022-10-06T00:21:31.328Z,18.51
2022-10-06T00:24:00.622Z,18.49
2022-10-06T00:26:29.778Z,18.48
2022-10-06T00:29:00.031Z,18.43
2022-10-06T00:31:31.388Z,18.42
2022-10-06T00:34:01.827Z,18.39
2022-10-06T00:36:30.621Z,18.35
2022-10-06T00:38:59.903Z,18.33
2022-10-06T00:41:29.789Z,18.32
2022-10-06T00:43:59.774Z,18.31
2022-10-06T00:46:38.985Z,18.28
2022-10-06T00:49:14.312Z,18.25
2022-10-06T00:51:47.223Z,18.24
2022-10-06T00:54:18.026Z,18.19
2022-10-06T00:56:48.034Z,18.14
2022-10-06T00:59:19.832Z,18.08
2022-10-06T01:01:58.363Z,18.07
2022-10-06T01:04:28.846Z,18.01
2022-10-06T01:07:01.374Z,18.01
2022-10-06T01:09:32.601Z,17.98
2022-10-06T01:12:05.445Z,17.96
2022-10-06T01:14:37.369Z,17.92
2022-10-06T01:17:13.850Z,17.92
2022-10-06T01:19:53.933Z,17.87
2022-10-06T01:22:31.611Z,17.85
2022-10-06T01:25:01.054Z,17.81
2022-10-06T01:27:32.831Z,17.78
2022-10-06T01:30:03.342Z,17.76
2022-10-06T01:32:37.274Z,17.74
2022-10-06T01:35:07.867Z,17.72
2022-10-06T01:37:39.195Z,17.72
2022-10-06T01:40:09.659Z,17.69
2022-10-06T01:42:39.959Z,17.66
2022-10-06T01:45:10.408Z,17.64
2022-10-06T01:47:40.541Z,17.64
2022-10-06T01:50:10.395Z,17.61
2022-10-06T01:52:40.516Z,17.59
2022-10-06T01:55:10.645Z,17.57
2022-10-06T01:57:43.548Z,17.53
2022-10-06T02:00:14.120Z,17.49
2022-10-06T02:02:42.678Z,17.45
2022-10-06T02:05:11.130Z,17.42
2022-10-06T02:07:41.244Z,17.36
2022-10-06T02:10:10.525Z,17.35
2022-10-06T02:12:38.497Z,17.32
2022-10-06T02:15:08.129Z,17.29
2022-10-06T02:17:37.051Z,17.26
2022-10-06T02:20:05.620Z,17.25
2022-10-06T02:22:34.177Z,17.25
2022-10-06T02:25:04.071Z,17.23
2022-10-06T02:27:32.021Z,17.20
2022-10-06T02:30:00.220Z,17.17
2022-10-06T02:32:35.986Z,17.15
2022-10-06T02:35:05.866Z,17.13
2022-10-06T02:37:34.788Z,17.10
2022-10-06T02:40:04.210Z,17.11
2022-10-06T02:42:32.753Z,17.08
2022-10-06T02:45:01.194Z,17.08
2022-10-06T02:47:29.516Z,17.07
2022-10-06T02:49:57.958Z,17.05
2022-10-06T02:52:26.403Z,17.04
2022-10-06T02:54:54.725Z,17.01
2022-10-06T02:57:24.847Z,16.98
2022-10-06T02:59:53.285Z,16.95
2022-10-06T03:02:21.324Z,16.93
2022-10-06T03:04:49.943Z,16.90
2022-10-06T03:07:18.852Z,16.89
2022-10-06T03:09:47.414Z,16.88
2022-10-06T03:12:15.855Z,16.87
2022-10-06T03:14:45.383Z,16.87
2022-10-06T03:17:14.062Z,16.85
2022-10-06T03:19:43.223Z,16.83
2022-10-06T03:22:11.794Z,16.85
2022-10-06T03:24:40.233Z,16.82
2022-10-06T03:27:08.909Z,16.79
2022-10-06T03:29:36.884Z,16.80
2022-10-06T03:32:07.112Z,16.80
2022-10-06T03:34:35.797Z,16.76
2022-10-06T03:37:04.002Z,16.75
2022-10-06T03:39:34.362Z,16.73
2022-10-06T03:42:02.921Z,16.73
2022-10-06T03:44:32.444Z,16.72
2022-10-06T03:47:01.038Z,16.72
2022-10-06T03:49:31.009Z,16.69
2022-10-06T03:51:58.978Z,16.65
2022-10-06T03:54:27.411Z,16.64
2022-10-06T03:56:56.099Z,16.65
2022-10-06T03:59:24.417Z,16.64
2022-10-06T04:01:53.523Z,16.62
2022-10-06T04:04:22.144Z,16.62
2022-10-06T04:06:51.543Z,16.62
2022-10-06T04:09:19.991Z,16.61
2022-10-06T04:11:48.436Z,16.60
2022-10-06T04:14:17.719Z,16.55
2022-10-06T04:16:48.045Z,16.54
2022-10-06T04:19:17.834Z,16.50
2022-10-06T04:21:48.676Z,16.48
2022-10-06T04:24:18.924Z,16.48
2022-10-06T04:26:49.406Z,16.44
2022-10-06T04:29:18.322Z,16.43
2022-10-06T04:31:47.122Z,16.41
2022-10-06T04:34:15.565Z,16.39
2022-10-06T04:36:45.211Z,16.38
2022-10-06T04:39:14.129Z,16.36
2022-10-06T04:41:47.326Z,16.31
2022-10-06T04:44:16.054Z,16.30
2022-10-06T04:46:44.906Z,16.26
2022-10-06T04:49:19.899Z,16.24
2022-10-06T04:51:49.840Z,16.23
2022-10-06T04:54:18.728Z,16.21
2022-10-06T04:56:48.110Z,16.19
2022-10-06T04:59:16.549Z,16.15
2022-10-06T05:01:44.514Z,16.12
2022-10-06T05:04:12.597Z,16.09
2022-10-06T05:06:42.955Z,16.05
2022-10-06T05:09:12.963Z,16.04
2022-10-06T05:11:40.922Z,16.02
2022-10-06T05:14:11.038Z,16.00
2022-10-06T05:16:39.214Z,15.99
2022-10-06T05:19:08.370Z,15.98
2022-10-06T05:21:37.204Z,15.96
2022-10-06T05:24:05.529Z,15.96
2022-10-06T05:26:35.530Z,15.94
2022-10-06T05:29:04.098Z,15.94
2022-10-06T05:31:35.279Z,15.92
2022-10-06T05:34:03.976Z,15.93
2022-10-06T05:36:34.165Z,15.90
2022-10-06T05:39:02.544Z,15.91
2022-10-06T05:41:33.261Z,15.90
2022-10-06T05:44:02.182Z,15.90
2022-10-06T05:46:32.185Z,15.90
2022-10-06T05:49:03.748Z,15.90
2022-10-06T05:51:33.628Z,15.91
2022-10-06T05:54:01.837Z,15.91
2022-10-06T05:56:32.673Z,15.89
2022-10-06T05:59:01.718Z,15.89
2022-10-06T06:01:31.877Z,15.89
2022-10-06T06:04:03.175Z,15.88
2022-10-06T06:06:33.409Z,15.87
2022-10-06T06:09:03.407Z,15.85
2022-10-06T06:11:33.287Z,15.82
2022-10-06T06:14:02.927Z,15.79
2022-10-06T06:16:31.235Z,15.74
2022-10-06T06:19:01.852Z,15.73
2022-10-06T06:21:30.422Z,15.70
2022-10-06T06:23:59.697Z,15.67
2022-10-06T06:26:29.941Z,15.67
2022-10-06T06:29:04.521Z,15.65
2022-10-06T06:31:35.474Z,15.65
2022-10-06T06:34:07.269Z,15.65
2022-10-06T06:36:36.968Z,15.61
2022-10-06T06:39:07.748Z,15.61
2022-10-06T06:41:38.351Z,15.62
2022-10-06T06:44:08.954Z,15.65
2022-10-06T06:46:36.923Z,15.66
2022-10-06T06:49:07.164Z,15.70
2022-10-06T06:51:37.883Z,15.72
2022-10-06T06:54:06.681Z,15.76
2022-10-06T06:56:36.566Z,15.80
2022-10-06T06:59:10.911Z,15.88
2022-10-06T07:01:40.271Z,15.96
2022-10-06T07:04:09.814Z,16.02
2022-10-06T07:06:40.537Z,16.08
2022-10-06T07:09:10.174Z,16.17
2022-10-06T07:11:40.057Z,16.26
2022-10-06T07:14:10.419Z,16.33
2022-10-06T07:16:56.142Z,16.42
2022-10-06T07:19:43.908Z,16.49
2022-10-06T07:22:34.185Z,16.58
2022-10-06T07:25:12.228Z,16.65
2022-10-06T07:27:43.551Z,16.75
2022-10-06T07:30:14.391Z,16.83
2022-10-06T07:32:42.367Z,16.91
2022-10-06T07:35:12.003Z,16.98
2022-10-06T07:37:41.281Z,17.06
2022-10-06T07:40:10.804Z,17.14
2022-10-06T07:42:49.444Z,17.22
2022-10-06T07:45:37.120Z,17.31
2022-10-06T07:48:07.088Z,17.39
2022-10-06T07:50:38.655Z,17.49
2022-10-06T07:53:09.491Z,17.54
2022-10-06T07:55:40.008Z,17.61
2022-10-06T07:58:12.620Z,17.69
2022-10-06T08:00:41.076Z,17.73
2022-10-06T08:03:10.272Z,17.77
2022-10-06T08:05:40.857Z,17.85
2022-10-06T08:08:08.909Z,17.94
2022-10-06T08:10:36.870Z,17.97
2022-10-06T08:13:07.123Z,18.04
2022-10-06T08:15:35.196Z,18.09
2022-10-06T08:18:12.260Z,18.16
2022-10-06T08:20:51.634Z,18.25
2022-10-06T08:23:20.195Z,18.30
2022-10-06T08:25:53.803Z,18.34
2022-10-06T08:28:22.791Z,18.37
2022-10-06T08:30:52.494Z,18.42
2022-10-06T08:33:22.151Z,18.46
2022-10-06T08:35:53.926Z,18.50
2022-10-06T08:38:22.011Z,18.55
2022-10-06T08:40:50.932Z,18.61
2022-10-06T08:43:25.032Z,18.67
2022-10-06T08:46:01.734Z,18.74
2022-10-06T08:48:38.941Z,18.78
2022-10-06T08:51:24.303Z,18.85
2022-10-06T08:54:04.624Z,18.92
2022-10-06T08:56:37.988Z,18.98
2022-10-06T08:59:10.505Z,19.07
2022-10-06T09:01:43.653Z,19.13
2022-10-06T09:04:23.010Z,19.19
2022-10-06T09:07:06.613Z,19.26
2022-10-06T09:09:58.839Z,19.31
2022-10-06T09:12:34.780Z,19.38
2022-10-06T09:15:11.724Z,19.40
2022-10-06T09:17:47.370Z,19.41
2022-10-06T09:20:20.795Z,19.44
2022-10-06T09:22:53.128Z,19.41
2022-10-06T09:25:26.731Z,19.48
2022-10-06T09:27:56.684Z,19.54
2022-10-06T09:30:25.208Z,19.58
2022-10-06T09:32:59.991Z,19.66
2022-10-06T09:35:30.577Z,19.67
2022-10-06T09:38:08.246Z,19.69
2022-10-06T09:40:41.161Z,19.73
2022-10-06T09:43:22.190Z,19.74
2022-10-06T09:45:51.705Z,19.78
2022-10-06T09:48:25.162Z,19.82
2022-10-06T09:51:13.558Z,19.86
2022-10-06T09:53:44.753Z,19.87
2022-10-06T09:56:18.873Z,19.91
2022-10-06T09:59:00.477Z,19.97
2022-10-06T10:05:28.247Z,20.06
2022-10-06T10:08:10.124Z,20.13
2022-10-06T10:10:40.568Z,20.13
2022-10-06T10:13:21.207Z,20.17
2022-10-06T10:15:55.495Z,20.22
2022-10-06T10:18:31.221Z,20.23
2022-10-06T10:21:07.818Z,20.27
2022-10-06T10:23:41.236Z,20.31
2022-10-06T10:26:37.105Z,20.37
2022-10-06T10:29:33.863Z,20.44
2022-10-06T10:32:16.976Z,20.51
2022-10-06T10:35:11.549Z,20.55
2022-10-06T10:37:46.710Z,20.57
2022-10-06T10:40:28.834Z,20.62
2022-10-06T10:43:18.158Z,20.65
2022-10-06T10:45:52.145Z,20.69
2022-10-06T10:48:26.096Z,20.71
2022-10-06T10:51:01.603Z,20.73
2022-10-06T10:53:40.241Z,20.78
2022-10-06T10:56:13.374Z,20.79
2022-10-06T10:58:46.056Z,20.84
2022-10-06T11:01:23.932Z,20.85
2022-10-06T11:03:57.900Z,20.83
2022-10-06T11:06:55.259Z,20.86
2022-10-06T11:09:30.779Z,20.88
2022-10-06T11:12:14.459Z,20.89
2022-10-06T11:14:52.384Z,20.92
2022-10-06T11:17:33.305Z,20.93
2022-10-06T11:20:11.597Z,20.97
2022-10-06T11:22:48.191Z,20.97
2022-10-06T11:25:24.199Z,21.00
2022-10-06T11:28:00.383Z,21.02
2022-10-06T11:30:32.477Z,21.03
2022-10-06T11:33:09.101Z,21.04
2022-10-06T11:35:39.818Z,21.05
2022-10-06T11:38:17.002Z,21.09
2022-10-06T11:41:10.062Z,21.11
2022-10-06T11:43:47.498Z,21.13
2022-10-06T11:46:32.483Z,21.10
2022-10-06T11:49:46.536Z,21.14
2022-10-06T11:52:37.779Z,21.14
2022-10-06T11:55:16.429Z,21.14
2022-10-06T11:58:41.296Z,21.14
2022-10-06T12:01:51.922Z,21.09
2022-10-06T12:04:24.543Z,21.10
2022-10-06T12:07:03.108Z,21.08
2022-10-06T12:09:49.632Z,21.06
2022-10-06T12:12:47.728Z,21.04
2022-10-06T12:18:46.570Z,21.07
2022-10-06T12:21:51.001Z,21.10
2022-10-06T12:24:32.043Z,21.09
2022-10-06T12:27:27.368Z,21.03
2022-10-06T12:30:04.208Z,21.04
2022-10-06T12:32:50.172Z,21.08
2022-10-06T12:35:27.859Z,21.10
2022-10-06T12:38:06.423Z,21.11
2022-10-06T12:40:47.255Z,21.12
2022-10-06T12:43:29.690Z,21.13
2022-10-06T12:46:04.283Z,21.11
2022-10-06T12:48:41.805Z,21.10
2022-10-06T12:51:26.248Z,21.11
2022-10-06T12:54:05.462Z,21.14
2022-10-06T12:56:36.045Z,21.16
2022-10-06T12:59:25.353Z,21.13
2022-10-06T13:01:56.674Z,21.15
2022-10-06T13:04:36.545Z,21.13
2022-10-06T13:07:15.522Z,21.13
2022-10-06T13:09:44.323Z,21.11
2022-10-06T13:12:31.727Z,21.10
2022-10-06T13:15:20.181Z,21.05
2022-10-06T13:17:53.088Z,21.02
2022-10-06T13:20:24.891Z,21.02
2022-10-06T13:23:07.391Z,20.99
2022-10-06T13:25:43.745Z,21.00
2022-10-06T13:28:31.716Z,20.95
2022-10-06T13:33:39.663Z,20.90
2022-10-06T13:40:03.061Z,20.87
2022-10-06T13:42:36.081Z,20.85
2022-10-06T13:45:05.593Z,20.87
2022-10-06T13:47:34.397Z,20.91
2022-10-06T13:50:06.133Z,20.93
2022-10-06T13:52:37.281Z,20.99
2022-10-06T13:55:16.096Z,21.05
2022-10-06T13:57:46.658Z,21.08
2022-10-06T14:00:22.046Z,21.15
2022-10-06T14:02:51.244Z,21.19
2022-10-06T14:05:41.975Z,21.22
2022-10-06T14:08:20.140Z,21.19
2022-10-06T14:10:52.663Z,21.20
2022-10-06T14:13:24.458Z,21.18
2022-10-06T14:15:59.751Z,21.15
2022-10-06T14:18:35.145Z,21.19
2022-10-06T14:21:36.284Z,21.19
2022-10-06T14:24:29.519Z,21.17
2022-10-06T14:27:13.310Z,21.15
2022-10-06T14:29:49.972Z,21.11
2022-10-06T14:32:39.878Z,21.09
2022-10-06T14:35:23.036Z,21.06
2022-10-06T14:38:01.921Z,21.04
2022-10-06T15:56:12.305Z,20.71
2022-10-06T15:58:41.346Z,20.67
2022-10-06T16:01:24.232Z,20.65
2022-10-06T16:03:54.072Z,20.66
2022-10-06T16:06:30.674Z,20.67
2022-10-06T16:08:58.764Z,20.65
2022-10-06T16:11:28.769Z,20.65
2022-10-06T16:13:57.080Z,20.64
2022-10-06T16:16:25.141Z,20.63
2022-10-06T16:18:53.851Z,20.64
2022-10-06T16:21:21.928Z,20.63
2022-10-06T16:23:54.093Z,20.63
2022-10-06T16:26:23.616Z,20.60
2022-10-06T16:28:53.382Z,20.58
2022-10-06T16:31:22.342Z,20.56
2022-10-06T16:33:50.627Z,20.54
2022-10-06T16:36:20.022Z,20.53
2022-10-06T16:38:52.063Z,20.52
2022-10-06T16:41:21.584Z,20.49
2022-10-06T16:43:51.230Z,20.47
2022-10-06T16:46:23.434Z,20.45
2022-10-06T16:48:53.274Z,20.40
2022-10-06T16:51:23.032Z,20.37
2022-10-06T16:53:53.523Z,20.32
2022-10-06T16:56:25.238Z,20.29
2022-10-06T16:58:55.211Z,20.23
2022-10-06T17:01:27.601Z,20.19
2022-10-06T17:03:59.869Z,20.12
2022-10-06T17:06:28.331Z,20.06
2022-10-06T17:08:56.768Z,20.01
2022-10-06T17:11:26.091Z,19.95
2022-10-06T17:13:57.136Z,19.89
2022-10-06T17:16:28.465Z,19.85
2022-10-06T17:18:58.820Z,19.78
2022-10-06T17:21:44.926Z,19.73
2022-10-06T17:24:14.182Z,19.67
2022-10-06T17:26:44.308Z,19.62
2022-10-06T17:29:15.628Z,19.57
2022-10-06T17:31:47.894Z,19.53
2022-10-06T17:34:21.188Z,19.46
2022-10-06T17:36:51.416Z,19.40
2022-10-06T17:39:21.999Z,19.33
2022-10-06T17:41:52.536Z,19.30
2022-10-06T17:44:23.662Z,19.24
2022-10-06T17:46:55.247Z,19.21
2022-10-06T17:49:24.642Z,19.13
2022-10-06T17:51:54.406Z,19.08
2022-10-06T17:54:24.423Z,19.02
2022-10-06T17:56:55.369Z,18.98
2022-10-06T17:59:25.273Z,18.92
2022-10-06T18:01:58.113Z,18.89
2022-10-06T18:04:27.250Z,18.82
2022-10-06T18:06:57.140Z,18.77
2022-10-06T18:09:26.100Z,18.72
2022-10-06T18:11:56.618Z,18.66
2022-10-06T18:14:26.594Z,18.61
2022-10-06T18:16:58.907Z,18.56
2022-10-06T18:19:30.120Z,18.53
2022-10-06T18:22:00.262Z,18.49
2022-10-06T18:24:30.328Z,18.43
2022-10-06T18:27:00.607Z,18.40
2022-10-06T18:29:30.317Z,18.35
2022-10-06T18:32:40.271Z,18.32
2022-10-06T18:37:37.405Z,18.24
2022-10-06T18:40:08.893Z,18.22
2022-10-06T18:42:38.127Z,18.15
2022-10-06T18:45:24.692Z,18.13
2022-10-06T18:48:12.231Z,18.08
2022-10-06T18:50:40.299Z,18.02
2022-10-06T18:53:08.501Z,18.00
2022-10-06T18:55:36.942Z,17.96
2022-10-06T18:58:06.511Z,17.92
2022-10-06T19:00:35.265Z,17.88
2022-10-06T19:03:04.672Z,17.85
2022-10-06T19:05:32.641Z,17.82
2022-10-06T19:08:01.071Z,17.77
2022-10-06T19:10:29.902Z,17.73
2022-10-06T19:12:58.926Z,17.70
2022-10-06T19:15:26.882Z,17.68
2022-10-06T19:17:55.442Z,17.65
2022-10-06T19:20:25.445Z,17.63
2022-10-06T19:22:53.645Z,17.59
2022-10-06T19:25:22.326Z,17.58
2022-10-06T19:27:51.248Z,17.55
2022-10-06T19:30:19.570Z,17.53
2022-10-06T19:32:48.134Z,17.48
2022-10-06T19:35:18.136Z,17.46
2022-10-06T19:37:48.017Z,17.42
2022-10-06T19:40:16.099Z,17.38
2022-10-06T19:42:49.221Z,17.35
2022-10-06T19:45:19.224Z,17.31
2022-10-06T19:47:47.589Z,17.28
2022-10-06T19:50:18.387Z,17.24
2022-10-06T19:52:48.031Z,17.23
2022-10-06T19:55:16.714Z,17.19
2022-10-06T19:57:44.962Z,17.16
2022-10-06T20:00:14.556Z,17.14
2022-10-06T20:02:43.859Z,17.11
2022-10-06T20:05:13.480Z,17.08
2022-10-06T20:07:42.662Z,17.03
2022-10-06T20:10:12.411Z,17.02
2022-10-06T20:12:41.989Z,16.98
2022-10-06T20:15:11.209Z,16.93
2022-10-06T20:17:41.979Z,16.90
2022-10-06T20:20:11.457Z,16.89
2022-10-06T20:22:39.546Z,16.85
2022-10-06T20:25:08.582Z,16.83
2022-10-06T20:27:38.345Z,16.81
2022-10-06T20:30:07.501Z,16.76
2022-10-06T20:32:35.946Z,16.75
2022-10-06T20:35:04.987Z,16.72
2022-10-06T20:37:33.548Z,16.70
2022-10-06T20:40:19.185Z,16.67
2022-10-06T20:42:50.243Z,16.65
2022-10-06T20:45:18.435Z,16.63
2022-10-06T20:47:48.006Z,16.59
2022-10-06T20:50:16.639Z,16.56
2022-10-06T20:52:44.604Z,16.53
2022-10-06T20:55:13.528Z,16.49
2022-10-06T20:57:42.576Z,16.47
2022-10-06T21:00:14.977Z,16.46
2022-10-06T21:02:42.997Z,16.43
2022-10-06T21:05:11.372Z,16.40
2022-10-06T21:07:40.293Z,16.38
2022-10-06T21:10:09.577Z,16.37
2022-10-06T21:12:38.521Z,16.36
2022-10-06T21:15:07.662Z,16.35
2022-10-06T21:17:37.062Z,16.34
2022-10-06T21:20:06.463Z,16.31
2022-10-06T21:22:34.426Z,16.29
2022-10-06T21:25:02.390Z,16.29
2022-10-06T21:27:30.591Z,16.28
2022-10-06T21:29:58.794Z,16.27
2022-10-06T21:32:26.877Z,16.25
2022-10-06T21:34:56.636Z,16.24
2022-10-06T21:37:24.749Z,16.22
2022-10-06T21:39:53.063Z,16.19
2022-10-06T21:42:21.004Z,16.19
2022-10-06T21:44:49.085Z,16.17
2022-10-06T21:47:17.974Z,16.14
2022-10-06T21:49:46.091Z,16.13
2022-10-06T21:52:15.491Z,16.13
2022-10-06T21:54:43.693Z,16.10
2022-10-06T21:57:15.385Z,16.08
2022-10-06T21:59:43.457Z,16.08
2022-10-06T22:02:11.940Z,16.07
2022-10-06T22:04:40.460Z,16.05
2022-10-06T22:07:08.662Z,16.04
2022-10-06T22:09:38.430Z,16.03
2022-10-06T22:12:06.748Z,16.00
2022-10-06T22:14:34.837Z,15.97
2022-10-06T22:17:05.197Z,15.96
2022-10-06T22:19:33.273Z,15.95
2022-10-06T22:22:01.240Z,15.94
2022-10-06T22:24:29.798Z,15.91
2022-10-06T22:26:59.926Z,15.92
2022-10-06T22:29:28.131Z,15.89
2022-10-06T22:31:58.297Z,15.88
2022-10-06T22:34:26.926Z,15.86
2022-10-06T22:36:54.889Z,15.85
2022-10-06T22:39:23.330Z,15.83
2022-10-06T22:41:51.296Z,15.82
2022-10-06T22:44:20.694Z,15.82
2022-10-06T22:46:49.299Z,15.80
2022-10-06T22:49:17.459Z,15.78
2022-10-06T22:51:45.420Z,15.76
2022-10-06T22:54:19.263Z,15.76
2022-10-06T22:56:47.585Z,15.73
2022-10-06T22:59:15.549Z,15.71
2022-10-06T23:01:45.316Z,15.71
2022-10-06T23:04:13.270Z,15.69
2022-10-06T23:06:41.235Z,15.67
2022-10-06T23:09:09.806Z,15.65
2022-10-06T23:11:37.879Z,15.62
2022-10-06T23:14:05.843Z,15.59
2022-10-06T23:16:34.489Z,15.59
2022-10-06T23:19:03.924Z,15.57
2022-10-06T23:21:32.855Z,15.53
2022-10-06T23:24:01.890Z,15.50
2022-10-06T23:26:30.211Z,15.48
2022-10-06T23:29:00.691Z,15.48
2022-10-06T23:31:29.994Z,15.44
2022-10-06T23:33:58.656Z,15.44
2022-10-06T23:36:28.059Z,15.44
2022-10-06T23:38:56.143Z,15.41
2022-10-06T23:41:24.222Z,15.40
2022-10-06T23:43:52.546Z,15.39
2022-10-06T23:46:20.975Z,15.36
2022-10-06T23:48:49.312Z,15.35
2022-10-06T23:51:17.272Z,15.33
2022-10-06T23:53:47.395Z,15.32
2022-10-06T23:56:15.594Z,15.30
2022-10-06T23:58:44.036Z,15.26
